createdAt,value
2023-11-15T00:00:23.887Z,100718.97
2023-11-15T00:00:55.388Z,100717.41
2023-11-15T00:01:27.934Z,100722.84
2023-11-15T00:01:59.435Z,100715.47
2023-11-15T00:02:31.988Z,100712.75
2023-11-15T00:03:04.528Z,100721.69
2023-11-15T00:03:36.202Z,100713.53
2023-11-15T00:04:09.913Z,100715.47
2023-11-15T00:04:41.445Z,100721.31
2023-11-15T00:05:12.920Z,100719.38
2023-11-15T00:05:44.701Z,100719.00
2023-11-15T00:06:16.319Z,100717.06
2023-11-15T00:06:48.645Z,100719.81
2023-11-15T00:07:20.302Z,100720.97
2023-11-15T00:07:51.739Z,100721.75
2023-11-15T00:08:23.266Z,100721.75
2023-11-15T00:08:54.829Z,100724.47
2023-11-15T00:09:26.320Z,100723.69
2023-11-15T00:09:58.026Z,100719.00
2023-11-15T00:10:29.514Z,100720.16
2023-11-15T00:11:01.069Z,100718.22
2023-11-15T00:11:32.656Z,100715.50
2023-11-15T00:12:04.643Z,100723.69
2023-11-15T00:12:36.212Z,100719.81
2023-11-15T00:13:09.441Z,100725.25
2023-11-15T00:13:40.944Z,100722.16
2023-11-15T00:14:12.474Z,100722.16
2023-11-15T00:14:44.774Z,100723.72
2023-11-15T00:15:16.596Z,100725.66
2023-11-15T00:15:48.137Z,100716.72
2023-11-15T00:16:19.833Z,100722.16
2023-11-15T00:16:51.394Z,100725.66
2023-11-15T00:17:22.910Z,100722.94
2023-11-15T00:18:14.768Z,100721.00
2023-11-15T00:18:46.574Z,100724.13
2023-11-15T00:19:18.368Z,100730.38
2023-11-15T00:19:50.732Z,100736.59
2023-11-15T00:20:22.624Z,100751.38
2023-11-15T00:20:54.239Z,100758.75
2023-11-15T00:21:25.920Z,100770.00
2023-11-15T00:21:59.031Z,100764.94
2023-11-15T00:22:32.686Z,100766.88
2023-11-15T00:23:04.355Z,100759.84
2023-11-15T00:23:36.368Z,100766.09
2023-11-15T00:24:08.376Z,100772.31
2023-11-15T00:24:40.075Z,100760.66
2023-11-15T00:25:11.606Z,100762.22
2023-11-15T00:25:43.148Z,100749.75
2023-11-15T00:26:15.227Z,100754.78
2023-11-15T00:26:46.690Z,100752.81
2023-11-15T00:27:18.484Z,100757.06
2023-11-15T00:27:50.237Z,100744.97
2023-11-15T00:28:21.749Z,100758.56
2023-11-15T00:28:53.949Z,100758.16
2023-11-15T00:29:25.627Z,100750.41
2023-11-15T00:29:57.075Z,100750.75
2023-11-15T00:30:28.483Z,100751.91
2023-11-15T00:30:59.964Z,100757.72
2023-11-15T00:31:33.030Z,100754.22
2023-11-15T00:32:05.960Z,100748.00
2023-11-15T00:32:37.517Z,100744.84
2023-11-15T00:33:09.280Z,100744.06
2023-11-15T00:33:41.050Z,100747.16
2023-11-15T00:34:12.691Z,100748.69
2023-11-15T00:34:44.181Z,100741.69
2023-11-15T00:35:15.991Z,100750.22
2023-11-15T00:35:47.602Z,100757.19
2023-11-15T00:36:22.024Z,100759.88
2023-11-15T00:36:56.022Z,100753.25
2023-11-15T00:37:28.704Z,100753.25
2023-11-15T00:38:00.140Z,100766.44
2023-11-15T00:38:31.681Z,100766.44
2023-11-15T00:39:05.866Z,100762.50
2023-11-15T00:39:37.333Z,100775.31
2023-11-15T00:40:11.923Z,100780.78
2023-11-15T00:40:43.489Z,100774.91
2023-11-15T00:41:14.936Z,100776.06
2023-11-15T00:41:46.821Z,100779.94
2023-11-15T00:42:18.308Z,100777.22
2023-11-15T00:42:50.355Z,100777.56
2023-11-15T00:43:21.920Z,100776.78
2023-11-15T00:43:53.376Z,100778.72
2023-11-15T00:44:24.884Z,100775.66
2023-11-15T00:44:56.491Z,100775.22
2023-11-15T00:45:28.893Z,100773.28
2023-11-15T00:46:00.445Z,100767.84
2023-11-15T00:46:33.576Z,100772.50
2023-11-15T00:47:06.376Z,100773.28
2023-11-15T00:47:37.940Z,100771.72
2023-11-15T00:48:09.468Z,100771.72
2023-11-15T00:48:43.942Z,100771.34
2023-11-15T00:49:15.419Z,100772.88
2023-11-15T00:49:46.938Z,100774.06
2023-11-15T00:50:19.296Z,100771.34
2023-11-15T00:50:50.843Z,100774.06
2023-11-15T00:51:22.982Z,100770.94
2023-11-15T00:51:55.508Z,100778.72
2023-11-15T00:52:26.942Z,100776.78
2023-11-15T00:52:59.582Z,100776.44
2023-11-15T00:53:31.038Z,100776.44
2023-11-15T00:54:02.513Z,100774.84
2023-11-15T00:54:34.104Z,100784.16
2023-11-15T00:55:06.946Z,100780.31
2023-11-15T00:55:38.428Z,100781.44
2023-11-15T00:56:09.860Z,100780.66
2023-11-15T00:56:41.565Z,100788.03
2023-11-15T00:57:13.694Z,100784.53
2023-11-15T00:57:46.200Z,100788.03
2023-11-15T00:58:18.873Z,100796.56
2023-11-15T00:58:50.415Z,100800.47
2023-11-15T00:59:45.481Z,100802.81
2023-11-15T01:00:25.311Z,100807.06
2023-11-15T01:00:57.774Z,100803.16
2023-11-15T01:01:29.474Z,100797.28
2023-11-15T01:02:01.025Z,100803.50
2023-11-15T01:02:37.281Z,100790.28
2023-11-15T01:03:09.251Z,100805.81
2023-11-15T01:03:59.932Z,100808.53
2023-11-15T01:04:31.952Z,100801.16
2023-11-15T01:05:04.281Z,100804.25
2023-11-15T01:05:35.834Z,100804.25
2023-11-15T01:06:07.806Z,100799.94
2023-11-15T01:06:39.260Z,100805.03
2023-11-15T01:07:10.693Z,100810.47
2023-11-15T01:07:42.146Z,100808.53
2023-11-15T01:08:13.561Z,100812.41
2023-11-15T01:08:45.132Z,100806.97
2023-11-15T01:09:17.191Z,100814.34
2023-11-15T01:09:49.049Z,100813.56
2023-11-15T01:10:20.691Z,100812.41
2023-11-15T01:10:58.125Z,100805.03
2023-11-15T01:11:29.723Z,100815.13
2023-11-15T01:12:01.369Z,100816.69
2023-11-15T01:12:32.908Z,100815.13
2023-11-15T01:13:04.544Z,100828.31
2023-11-15T01:13:36.184Z,100826.38
2023-11-15T01:14:07.630Z,100823.66
2023-11-15T01:14:39.185Z,100823.66
2023-11-15T01:15:11.648Z,100825.22
2023-11-15T01:15:43.140Z,100825.22
2023-11-15T01:16:15.692Z,100822.50
2023-11-15T01:16:47.284Z,100823.28
2023-11-15T01:17:18.777Z,100819.41
2023-11-15T01:17:51.311Z,100815.13
2023-11-15T01:18:23.072Z,100815.91
2023-11-15T01:18:54.692Z,100813.97
2023-11-15T01:19:26.361Z,100817.84
2023-11-15T01:19:57.909Z,100815.91
2023-11-15T01:20:29.383Z,100818.63
2023-11-15T01:21:02.208Z,100820.56
2023-11-15T01:21:33.708Z,100817.47
2023-11-15T01:22:05.242Z,100823.69
2023-11-15T01:22:36.757Z,100818.25
2023-11-15T01:23:08.282Z,100820.25
2023-11-15T01:23:40.101Z,100816.75
2023-11-15T01:24:11.711Z,100821.41
2023-11-15T01:24:43.226Z,100822.19
2023-11-15T01:25:15.427Z,100819.84
2023-11-15T01:25:46.938Z,100819.03
2023-11-15T01:26:19.593Z,100821.78
2023-11-15T01:26:52.397Z,100832.66
2023-11-15T01:27:23.849Z,100826.44
2023-11-15T01:27:55.307Z,100836.16
2023-11-15T01:28:26.796Z,100836.94
2023-11-15T01:28:58.965Z,100842.81
2023-11-15T01:29:30.513Z,100838.50
2023-11-15T01:30:20.753Z,100833.84
2023-11-15T01:30:52.179Z,100843.59
2023-11-15T01:31:23.699Z,100840.88
2023-11-15T01:31:56.971Z,100837.00
2023-11-15T01:32:28.908Z,100842.06
2023-11-15T01:33:00.573Z,100842.06
2023-11-15T01:33:32.750Z,100840.09
2023-11-15T01:34:04.326Z,100838.56
2023-11-15T01:34:35.844Z,100839.34
2023-11-15T01:35:09.169Z,100838.16
2023-11-15T01:35:40.647Z,100847.13
2023-11-15T01:36:12.150Z,100840.88
2023-11-15T01:36:46.093Z,100840.09
2023-11-15T01:37:18.292Z,100833.91
2023-11-15T01:37:54.222Z,100845.53
2023-11-15T01:38:25.806Z,100836.63
2023-11-15T01:38:57.398Z,100839.72
2023-11-15T01:39:29.529Z,100836.22
2023-11-15T01:40:07.639Z,100838.16
2023-11-15T01:40:39.408Z,100844.72
2023-11-15T01:41:11.467Z,100842.00
2023-11-15T01:41:49.263Z,100845.53
2023-11-15T01:42:39.554Z,100839.66
2023-11-15T01:44:00.645Z,100850.97
2023-11-15T01:44:32.605Z,100852.13
2023-11-15T01:45:04.888Z,100861.84
2023-11-15T01:45:37.274Z,100851.75
2023-11-15T01:46:58.184Z,100857.19
2023-11-15T01:47:30.753Z,100857.19
2023-11-15T01:48:02.630Z,100864.19
2023-11-15T01:48:34.895Z,100853.31
2023-11-15T01:49:07.032Z,100864.19
2023-11-15T01:49:38.523Z,100867.72
2023-11-15T01:50:29.121Z,100866.94
2023-11-15T01:51:02.828Z,100866.13
2023-11-15T01:51:34.444Z,100859.53
2023-11-15T01:52:06.082Z,100870.44
2023-11-15T01:53:03.527Z,100865.78
2023-11-15T01:53:35.750Z,100865.00
2023-11-15T01:54:07.704Z,100864.59
2023-11-15T01:54:39.247Z,100868.88
2023-11-15T01:55:14.022Z,100862.66
2023-11-15T01:55:46.819Z,100869.66
2023-11-15T01:56:18.349Z,100867.72
2023-11-15T01:56:50.043Z,100874.75
2023-11-15T01:57:22.173Z,100872.81
2023-11-15T01:57:54.424Z,100879.81
2023-11-15T01:58:29.203Z,100868.16
2023-11-15T01:59:01.991Z,100875.53
2023-11-15T01:59:33.991Z,100881.75
2023-11-15T02:00:10.043Z,100879.81
2023-11-15T02:00:41.851Z,100885.28
2023-11-15T02:01:16.824Z,100875.16
2023-11-15T02:01:52.114Z,100879.81
2023-11-15T02:02:23.596Z,100882.19
2023-11-15T02:02:56.227Z,100878.69
2023-11-15T02:03:27.951Z,100878.31
2023-11-15T02:03:59.788Z,100882.97
2023-11-15T02:04:31.300Z,100883.75
2023-11-15T02:05:02.768Z,100885.69
2023-11-15T02:05:34.309Z,100882.97
2023-11-15T02:06:57.082Z,100881.03
2023-11-15T02:07:47.505Z,100886.91
2023-11-15T02:08:19.028Z,100889.97
2023-11-15T02:08:50.579Z,100885.31
2023-11-15T02:09:22.625Z,100883.75
2023-11-15T02:09:54.356Z,100895.44
2023-11-15T02:10:26.064Z,100899.28
2023-11-15T02:10:57.764Z,100893.06
2023-11-15T02:11:29.418Z,100888.41
2023-11-15T02:12:01.032Z,100886.84
2023-11-15T02:12:32.953Z,100896.56
2023-11-15T02:13:04.517Z,100887.63
2023-11-15T02:13:35.980Z,100896.56
2023-11-15T02:14:07.565Z,100895.78
2023-11-15T02:14:39.102Z,100900.09
2023-11-15T02:15:11.004Z,100897.34
2023-11-15T02:16:53.052Z,100899.72
2023-11-15T02:17:24.792Z,100895.44
2023-11-15T02:17:56.473Z,100901.66
2023-11-15T02:18:28.351Z,100903.22
2023-11-15T02:18:59.932Z,100900.88
2023-11-15T02:19:31.447Z,100907.88
2023-11-15T02:20:06.326Z,100908.66
2023-11-15T02:20:37.791Z,100911.03
2023-11-15T02:21:10.742Z,100897.78
2023-11-15T02:22:01.172Z,100909.50
2023-11-15T02:22:33.839Z,100907.16
2023-11-15T02:23:06.016Z,100909.50
2023-11-15T02:23:46.947Z,100911.06
2023-11-15T02:24:18.638Z,100910.28
2023-11-15T02:24:50.544Z,100904.84
2023-11-15T02:25:22.600Z,100913.00
2023-11-15T02:25:54.075Z,100906.78
2023-11-15T02:26:25.695Z,100904.84
2023-11-15T02:26:57.284Z,100904.84
2023-11-15T02:27:28.773Z,100905.63
2023-11-15T02:28:01.597Z,100901.75
2023-11-15T02:28:33.264Z,100897.47
2023-11-15T02:29:05.173Z,100900.19
2023-11-15T02:30:25.412Z,100907.22
2023-11-15T02:30:56.935Z,100912.66
2023-11-15T02:31:47.177Z,100900.97
2023-11-15T02:32:18.629Z,100907.22
2023-11-15T02:32:50.154Z,100904.84
2023-11-15T02:33:21.766Z,100911.06
2023-11-15T02:33:53.249Z,100908.34
2023-11-15T02:34:24.713Z,100902.91
2023-11-15T02:34:56.180Z,100902.91
2023-11-15T02:35:28.296Z,100902.13
2023-11-15T02:36:00.666Z,100899.41
2023-11-15T02:36:32.189Z,100907.22
2023-11-15T02:37:03.843Z,100908.34
2023-11-15T02:37:54.049Z,100907.63
2023-11-15T02:38:25.540Z,100911.50
2023-11-15T02:38:57.132Z,100908.78
2023-11-15T02:39:28.719Z,100908.00
2023-11-15T02:40:02.359Z,100908.78
2023-11-15T02:40:33.919Z,100906.84
2023-11-15T02:41:05.569Z,100911.91
2023-11-15T02:41:37.136Z,100910.34
2023-11-15T02:42:08.619Z,100908.41
2023-11-15T02:42:40.279Z,100907.63
2023-11-15T02:43:11.728Z,100909.56
2023-11-15T02:43:43.231Z,100907.63
2023-11-15T02:44:14.783Z,100907.63
2023-11-15T02:44:46.244Z,100910.34
2023-11-15T02:45:17.707Z,100908.41
2023-11-15T02:45:49.161Z,100907.25
2023-11-15T02:46:23.850Z,100909.97
2023-11-15T02:46:55.496Z,100909.59
2023-11-15T02:47:27.449Z,100914.25
2023-11-15T02:47:58.976Z,100913.47
2023-11-15T02:48:30.732Z,100912.31
2023-11-15T02:49:02.379Z,100912.31
2023-11-15T02:49:33.916Z,100918.91
2023-11-15T02:50:05.905Z,100918.53
2023-11-15T02:50:37.436Z,100914.25
2023-11-15T02:51:09.199Z,100911.16
2023-11-15T02:51:40.776Z,100912.72
2023-11-15T02:52:12.261Z,100903.38
2023-11-15T02:52:43.761Z,100904.94
2023-11-15T02:53:15.427Z,100908.44
2023-11-15T02:53:47.706Z,100911.16
2023-11-15T02:54:19.221Z,100907.28
2023-11-15T02:54:51.204Z,100906.50
2023-11-15T02:55:22.767Z,100903.78
2023-11-15T02:55:54.251Z,100907.28
2023-11-15T02:56:25.905Z,100910.00
2023-11-15T02:56:57.436Z,100910.78
2023-11-15T02:57:29.006Z,100906.13
2023-11-15T02:58:02.052Z,100907.28
2023-11-15T02:58:34.163Z,100907.28
2023-11-15T02:59:05.648Z,100903.78
2023-11-15T02:59:37.119Z,100904.56
2023-11-15T03:00:09.861Z,100907.28
2023-11-15T03:00:41.908Z,100903.00
2023-11-15T03:01:14.157Z,100903.00
2023-11-15T03:01:49.309Z,100903.78
2023-11-15T03:02:21.096Z,100904.56
2023-11-15T03:02:52.887Z,100904.56
2023-11-15T03:03:24.608Z,100907.28
2023-11-15T03:03:56.311Z,100911.16
2023-11-15T03:04:46.611Z,100903.41
2023-11-15T03:05:18.487Z,100904.56
2023-11-15T03:05:50.042Z,100907.28
2023-11-15T03:06:21.565Z,100908.06
2023-11-15T03:06:53.053Z,100903.41
2023-11-15T03:07:25.174Z,100912.38
2023-11-15T03:07:56.958Z,100913.53
2023-11-15T03:08:28.707Z,100908.06
2023-11-15T03:09:00.285Z,100902.63
2023-11-15T03:09:32.799Z,100903.06
2023-11-15T03:10:23.189Z,100905.34
2023-11-15T03:10:54.727Z,100911.22
2023-11-15T03:11:26.240Z,100915.88
2023-11-15T03:11:57.830Z,100906.56
2023-11-15T03:12:32.052Z,100909.28
2023-11-15T03:13:04.729Z,100908.13
2023-11-15T03:13:36.297Z,100909.69
2023-11-15T03:14:08.075Z,100917.88
2023-11-15T03:14:39.620Z,100913.22
2023-11-15T03:15:11.418Z,100913.22
2023-11-15T03:15:43.058Z,100914.78
2023-11-15T03:16:15.604Z,100912.06
2023-11-15T03:16:47.188Z,100917.50
2023-11-15T03:17:19.934Z,100912.47
2023-11-15T03:17:51.674Z,100915.97
2023-11-15T03:18:23.396Z,100923.00
2023-11-15T03:18:55.009Z,100925.72
2023-11-15T03:19:26.505Z,100929.22
2023-11-15T03:19:58.063Z,100923.00
2023-11-15T03:20:31.170Z,100927.28
2023-11-15T03:21:03.636Z,100921.84
2023-11-15T03:21:35.174Z,100921.47
2023-11-15T03:22:06.719Z,100924.22
2023-11-15T03:22:38.255Z,100920.69
2023-11-15T03:23:10.957Z,100919.13
2023-11-15T03:24:01.207Z,100933.53
2023-11-15T03:24:32.708Z,100933.53
2023-11-15T03:25:04.884Z,100935.47
2023-11-15T03:25:37.987Z,100936.25
2023-11-15T03:26:09.520Z,100929.22
2023-11-15T03:26:41.060Z,100937.41
2023-11-15T03:27:31.195Z,100937.81
2023-11-15T03:28:02.733Z,100937.03
2023-11-15T03:28:34.614Z,100938.19
2023-11-15T03:29:06.331Z,100942.47
2023-11-15T03:29:37.802Z,100946.00
2023-11-15T03:30:09.703Z,100941.31
2023-11-15T03:30:41.166Z,100937.81
2023-11-15T03:31:13.779Z,100946.78
2023-11-15T03:31:45.255Z,100942.13
2023-11-15T03:32:16.787Z,100948.34
2023-11-15T03:32:48.377Z,100941.31
2023-11-15T03:33:20.115Z,100946.78
2023-11-15T03:33:54.712Z,100939.38
2023-11-15T03:34:26.189Z,100946.41
2023-11-15T03:34:57.659Z,100940.19
2023-11-15T03:35:29.191Z,100945.25
2023-11-15T03:36:00.743Z,100936.31
2023-11-15T03:36:33.791Z,100943.69
2023-11-15T03:37:05.832Z,100947.19
2023-11-15T03:37:37.379Z,100950.69
2023-11-15T03:38:08.862Z,100947.97
2023-11-15T03:38:58.737Z,100947.97
2023-11-15T03:39:32.545Z,100948.75
2023-11-15T03:40:05.318Z,100948.75
2023-11-15T03:40:37.008Z,100960.41
2023-11-15T03:41:08.592Z,100954.19
2023-11-15T03:41:40.160Z,100952.25
2023-11-15T03:42:13.432Z,100950.31
2023-11-15T03:42:45.048Z,100945.66
2023-11-15T03:43:16.525Z,100956.16
2023-11-15T03:43:47.940Z,100958.09
2023-11-15T03:44:19.694Z,100958.09
2023-11-15T03:44:51.444Z,100959.69
2023-11-15T03:45:22.989Z,100956.59
2023-11-15T03:45:55.792Z,100957.75
2023-11-15T03:46:27.842Z,100953.88
2023-11-15T03:46:59.839Z,100963.59
2023-11-15T03:47:32.968Z,100960.88
2023-11-15T03:48:04.859Z,100960.09
2023-11-15T03:48:36.861Z,100961.69
2023-11-15T03:49:08.370Z,100958.94
2023-11-15T03:49:40.076Z,100956.22
2023-11-15T03:50:12.818Z,100963.25
2023-11-15T03:50:44.398Z,100959.75
2023-11-15T03:51:15.841Z,100957.81
2023-11-15T03:51:47.288Z,100957.44
2023-11-15T03:52:18.964Z,100959.38
2023-11-15T03:52:50.416Z,100966.75
2023-11-15T03:53:22.874Z,100954.72
2023-11-15T03:53:54.414Z,100960.94
2023-11-15T03:54:25.954Z,100962.88
2023-11-15T03:54:58.058Z,100961.72
2023-11-15T03:55:31.534Z,100959.00
2023-11-15T03:56:04.076Z,100957.06
2023-11-15T03:56:35.601Z,100955.13
2023-11-15T03:57:09.337Z,100960.56
2023-11-15T03:57:41.896Z,100956.69
2023-11-15T03:58:13.700Z,100961.00
2023-11-15T03:58:45.175Z,100950.09
2023-11-15T03:59:16.922Z,100957.50
2023-11-15T03:59:48.512Z,100957.50
2023-11-15T04:00:20.150Z,100962.94
2023-11-15T04:00:51.661Z,100965.28
2023-11-15T04:01:23.176Z,100959.06
2023-11-15T04:01:57.547Z,100969.16
2023-11-15T04:02:29.695Z,100970.75
2023-11-15T04:03:01.536Z,100964.50
2023-11-15T04:03:34.017Z,100966.06
2023-11-15T04:04:05.763Z,100966.88
2023-11-15T04:04:40.244Z,100968.00
2023-11-15T04:05:12.924Z,100966.06
2023-11-15T04:05:45.469Z,100971.53
2023-11-15T04:06:17.796Z,100972.31
2023-11-15T04:06:49.225Z,100970.75
2023-11-15T04:07:20.688Z,100971.53
2023-11-15T04:08:10.517Z,100975.44
2023-11-15T04:08:42.270Z,100963.00
2023-11-15T04:09:14.651Z,100973.09
2023-11-15T04:09:46.185Z,100972.31
2023-11-15T04:10:17.748Z,100973.88
2023-11-15T04:10:49.782Z,100976.59
2023-11-15T04:11:21.293Z,100981.28
2023-11-15T04:11:53.377Z,100975.03
2023-11-15T04:12:24.939Z,100985.56
2023-11-15T04:12:56.394Z,100982.84
2023-11-15T04:13:46.539Z,100985.56
2023-11-15T04:15:10.136Z,100978.53
2023-11-15T04:16:30.676Z,100977.41
2023-11-15T04:17:02.105Z,100982.06
2023-11-15T04:17:33.634Z,100988.28
2023-11-15T04:18:05.447Z,100989.44
2023-11-15T04:18:39.358Z,100980.47
2023-11-15T04:19:11.385Z,100983.19
2023-11-15T04:19:42.893Z,100983.19
2023-11-15T04:20:14.475Z,100988.66
2023-11-15T04:20:46.021Z,100983.19
2023-11-15T04:21:17.585Z,100982.41
2023-11-15T04:22:12.313Z,100987.88
2023-11-15T04:22:45.678Z,100984.00
2023-11-15T04:23:17.201Z,100986.72
2023-11-15T04:23:48.774Z,100986.72
2023-11-15T04:24:20.273Z,100989.44
2023-11-15T04:24:53.802Z,100981.63
2023-11-15T04:25:26.059Z,100986.72
2023-11-15T04:25:59.384Z,100984.78
2023-11-15T04:26:31.047Z,100992.16
2023-11-15T04:27:03.748Z,100992.94
2023-11-15T04:27:54.064Z,100988.66
2023-11-15T04:28:25.563Z,100990.59
2023-11-15T04:28:57.107Z,100990.59
2023-11-15T04:29:28.619Z,100994.09
2023-11-15T04:30:00.280Z,100987.88
2023-11-15T04:30:32.259Z,100998.75
2023-11-15T04:31:04.041Z,100991.75
2023-11-15T04:31:36.623Z,100996.03
2023-11-15T04:32:08.216Z,100996.81
2023-11-15T04:32:40.678Z,100997.97
2023-11-15T04:33:13.636Z,100995.25
2023-11-15T04:33:47.082Z,101000.69
2023-11-15T04:34:18.592Z,100999.91
2023-11-15T04:34:50.114Z,100997.97
2023-11-15T04:35:21.621Z,101002.63
2023-11-15T04:35:53.133Z,101001.84
2023-11-15T04:36:24.564Z,101004.19
2023-11-15T04:36:56.087Z,101005.00
2023-11-15T04:37:27.518Z,101006.13
2023-11-15T04:37:58.996Z,101012.38
2023-11-15T04:38:30.618Z,101002.63
2023-11-15T04:39:08.403Z,101014.31
2023-11-15T04:39:41.864Z,101004.19
2023-11-15T04:40:13.397Z,101011.22
2023-11-15T04:40:44.885Z,101011.22
2023-11-15T04:41:16.420Z,101014.72
2023-11-15T04:41:49.601Z,101014.72
2023-11-15T04:42:21.431Z,101010.06
2023-11-15T04:42:52.935Z,101016.31
2023-11-15T04:43:27.226Z,101008.13
2023-11-15T04:43:58.824Z,101015.16
2023-11-15T04:44:31.816Z,101016.69
2023-11-15T04:45:04.544Z,101015.16
2023-11-15T04:45:36.004Z,101019.41
2023-11-15T04:46:07.731Z,101021.00
2023-11-15T04:46:39.334Z,101022.16
2023-11-15T04:47:11.412Z,101018.28
2023-11-15T04:47:43.434Z,101024.50
2023-11-15T04:48:15.051Z,101023.34
2023-11-15T04:48:46.550Z,101026.06
2023-11-15T04:49:19.317Z,101022.56
2023-11-15T04:49:50.935Z,101028.00
2023-11-15T04:50:23.496Z,101024.50
2023-11-15T04:50:57.366Z,101023.72
2023-11-15T04:51:28.982Z,101025.28
2023-11-15T04:52:00.500Z,101022.94
2023-11-15T04:52:31.985Z,101023.72
2023-11-15T04:53:08.202Z,101021.00
2023-11-15T04:53:40.004Z,101026.44
2023-11-15T04:54:11.724Z,101029.16
2023-11-15T04:54:43.265Z,101030.31
2023-11-15T04:55:14.729Z,101025.66
2023-11-15T04:55:46.158Z,101028.00
2023-11-15T04:56:17.650Z,101029.94
2023-11-15T04:56:49.257Z,101027.22
2023-11-15T04:57:24.560Z,101034.59
2023-11-15T04:57:56.024Z,101032.66
2023-11-15T04:58:27.450Z,101032.66
2023-11-15T04:58:59.001Z,101033.09
2023-11-15T04:59:31.803Z,101032.31
2023-11-15T05:00:05.748Z,101028.00
2023-11-15T05:00:37.292Z,101030.72
2023-11-15T05:01:08.740Z,101030.72
2023-11-15T05:01:42.951Z,101034.25
2023-11-15T05:02:15.163Z,101029.59
2023-11-15T05:02:46.767Z,101031.53
2023-11-15T05:03:37.606Z,101032.31
2023-11-15T05:04:09.385Z,101026.84
2023-11-15T05:04:41.114Z,101042.06
2023-11-15T05:05:12.792Z,101033.88
2023-11-15T05:05:46.594Z,101024.13
2023-11-15T05:06:18.381Z,101028.44
2023-11-15T05:06:51.094Z,101033.09
2023-11-15T05:07:26.277Z,101036.59
2023-11-15T05:07:58.736Z,101030.00
2023-11-15T05:08:30.229Z,101023.78
2023-11-15T05:09:21.125Z,101031.56
2023-11-15T05:09:52.600Z,101030.00
2023-11-15T05:10:26.052Z,101034.66
2023-11-15T05:10:57.491Z,101031.56
2023-11-15T05:11:29.009Z,101035.44
2023-11-15T05:12:01.274Z,101031.56
2023-11-15T05:12:32.847Z,101036.59
2023-11-15T05:13:05.461Z,101034.66
2023-11-15T05:13:36.980Z,101039.31
2023-11-15T05:14:08.482Z,101041.69
2023-11-15T05:14:40.090Z,101040.91
2023-11-15T05:15:11.634Z,101037.38
2023-11-15T05:15:43.072Z,101035.09
2023-11-15T05:16:14.675Z,101036.25
2023-11-15T05:16:46.160Z,101036.25
2023-11-15T05:17:17.695Z,101043.63
2023-11-15T05:17:49.225Z,101043.63
2023-11-15T05:18:21.146Z,101034.66
2023-11-15T05:18:52.710Z,101040.91
2023-11-15T05:19:24.646Z,101049.06
2023-11-15T05:19:56.127Z,101040.91
2023-11-15T05:20:28.259Z,101040.91
2023-11-15T05:21:00.510Z,101042.84
2023-11-15T05:21:32.525Z,101038.53
2023-11-15T05:22:06.880Z,101038.19
2023-11-15T05:22:56.902Z,101043.25
2023-11-15T05:23:28.394Z,101040.91
2023-11-15T05:24:00.602Z,101041.69
2023-11-15T05:24:32.497Z,101037.03
2023-11-15T05:25:07.157Z,101030.00
2023-11-15T05:25:38.797Z,101041.69
2023-11-15T05:26:10.492Z,101040.13
2023-11-15T05:26:42.011Z,101047.13
2023-11-15T05:27:13.556Z,101040.13
2023-11-15T05:27:46.208Z,101046.34
2023-11-15T05:28:19.627Z,101053.38
2023-11-15T05:28:51.149Z,101053.38
2023-11-15T05:29:23.420Z,101062.69
2023-11-15T05:29:54.893Z,101057.25
2023-11-15T05:30:45.082Z,101054.94
2023-11-15T05:31:17.238Z,101038.19
2023-11-15T05:31:49.333Z,101046.72
2023-11-15T05:32:20.813Z,101045.50
2023-11-15T05:32:52.420Z,101041.59
2023-11-15T05:33:24.022Z,101034.59
2023-11-15T05:33:56.031Z,101040.03
2023-11-15T05:34:28.748Z,101045.84
2023-11-15T05:35:00.330Z,101038.44
2023-11-15T05:35:31.806Z,101043.91
2023-11-15T05:36:03.559Z,101051.28
2023-11-15T05:36:35.025Z,101044.69
2023-11-15T05:37:06.519Z,101046.63
2023-11-15T05:37:39.304Z,101037.66
2023-11-15T05:38:11.114Z,101041.97
2023-11-15T05:39:01.148Z,101045.09
2023-11-15T05:39:32.646Z,101047.06
2023-11-15T05:40:04.580Z,101043.91
2023-11-15T05:40:36.115Z,101043.91
2023-11-15T05:41:07.600Z,101050.91
2023-11-15T05:41:39.154Z,101052.50
2023-11-15T05:42:10.730Z,101048.97
2023-11-15T05:42:45.837Z,101046.63
2023-11-15T05:43:17.321Z,101053.66
2023-11-15T05:43:48.737Z,101057.16
2023-11-15T05:44:20.371Z,101055.59
2023-11-15T05:44:52.640Z,101050.13
2023-11-15T05:45:26.671Z,101053.22
2023-11-15T05:45:58.467Z,101057.88
2023-11-15T05:46:30.005Z,101053.22
2023-11-15T05:47:02.781Z,101057.53
2023-11-15T05:47:52.546Z,101051.28
2023-11-15T05:48:24.220Z,101056.72
2023-11-15T05:48:55.738Z,101056.72
2023-11-15T05:49:27.314Z,101057.88
2023-11-15T05:49:58.878Z,101056.31
2023-11-15T05:50:30.486Z,101062.19
2023-11-15T05:51:04.566Z,101054.38
2023-11-15T05:51:36.067Z,101060.97
2023-11-15T05:52:07.831Z,101057.47
2023-11-15T05:52:39.339Z,101056.31
2023-11-15T05:53:11.638Z,101055.53
2023-11-15T05:54:06.239Z,101057.09
2023-11-15T05:54:38.215Z,101053.59
2023-11-15T05:55:12.292Z,101054.75
2023-11-15T05:56:02.324Z,101055.53
2023-11-15T05:56:33.902Z,101055.53
2023-11-15T05:57:05.911Z,101060.97
2023-11-15T05:57:37.416Z,101048.50
2023-11-15T05:58:10.586Z,101057.47
2023-11-15T05:58:42.475Z,101060.19
2023-11-15T05:59:14.946Z,101063.69
2023-11-15T05:59:46.426Z,101062.91
2023-11-15T06:00:21.607Z,101053.94
2023-11-15T06:00:53.096Z,101061.34
2023-11-15T06:01:25.294Z,101068.34
2023-11-15T06:01:56.813Z,101062.91
2023-11-15T06:02:28.450Z,101061.34
2023-11-15T06:03:01.233Z,101064.84
2023-11-15T06:03:32.942Z,101070.28
2023-11-15T06:04:04.624Z,101062.91
2023-11-15T06:04:36.280Z,101067.56
2023-11-15T06:05:08.570Z,101057.47
2023-11-15T06:05:40.025Z,101069.94
2023-11-15T06:06:11.561Z,101067.19
2023-11-15T06:06:43.034Z,101065.25
2023-11-15T06:07:14.749Z,101067.19
2023-11-15T06:07:46.841Z,101070.28
2023-11-15T06:08:18.962Z,101062.91
2023-11-15T06:08:50.835Z,101073.44
2023-11-15T06:09:22.459Z,101062.91
2023-11-15T06:09:54.128Z,101071.88
2023-11-15T06:10:27.888Z,101067.19
2023-11-15T06:10:59.823Z,101071.50
2023-11-15T06:11:32.125Z,101071.88
2023-11-15T06:12:03.947Z,101071.50
2023-11-15T06:12:36.599Z,101074.22
2023-11-15T06:13:08.155Z,101069.94
2023-11-15T06:13:39.764Z,101066.41
2023-11-15T06:14:15.608Z,101067.19
2023-11-15T06:14:48.338Z,101069.13
2023-11-15T06:15:20.080Z,101069.13
2023-11-15T06:15:51.629Z,101070.66
2023-11-15T06:16:23.894Z,101071.06
2023-11-15T06:16:55.499Z,101071.06
2023-11-15T06:17:29.894Z,101066.00
2023-11-15T06:18:01.533Z,101074.94
2023-11-15T06:19:25.066Z,101063.69
2023-11-15T06:20:04.366Z,101067.19
2023-11-15T06:20:41.848Z,101075.38
2023-11-15T06:21:31.986Z,101071.06
2023-11-15T06:22:04.214Z,101073.00
2023-11-15T06:22:35.684Z,101072.22